OOMS/MCT METAR and TAF weather

Enter ICAO airport designator
Station Type Date Time Source
OOMS METAR 2020/07/06 18:50 UTC NOAA

OOMS 061850Z 34003KT CAVOK 33/29 Q0995 NOSIG


Station Type Date Time Source
OOMS Decoded METAR 2020/07/06 18:50 UTC NOAA

Seeb, International Airport, Oman (OOMS) 23-35N 058-17E 17M
Jul 06, 2020 - 02:50 PM EDT / 2020.07.06 1850 UTC
Wind: from the NNW (340 degrees) at 3 MPH (3 KT):0
Visibility: greater than 7 mile(s):0
Temperature: 91 F (33 C)
Heat index: 116.2 F (46.8 C):1
Dew Point: 84 F (29 C)
Relative Humidity: 79%
Pressure (altimeter): 29.38 in. Hg (0995 hPa)
ob: OOMS 061850Z 34003KT CAVOK 33/29 Q0995 NOSIG
cycle: 19

Station Type Date Time Source
OOMS TAF 2020/07/06 18:03 UTC NOAA

TAF OOMS 061700Z 0618/0724 VRB02KT 8000 NSC
TEMPO 0618/0620 21016KT PROB30
TEMPO 0621/0701 SCT020
BECMG 0706/0708 05012KT
BECMG 0716/0718 VRB02KT

Example: see airport list